Wetterdaten: Woche 23.06.03 - 29.06.03 (KW26)
Datum Zeit Temperatur Luftfeuchte Luftdruck Regenmenge Wind Richtung Taupunkt Windchill
23.06.2003 00:00 15.8 C 81 % 1011.1 hPa 0.0 l/m 6.3 km/h (2 Bft) O-SO 12.6 C 15.8 C
23.06.2003 01:00 15.8 C 78 % 1011.1 hPa 0.0 l/m 2.8 km/h (1 Bft) O-SO 11.9 C 15.8 C
23.06.2003 02:00 15.4 C 78 % 1011.1 hPa 0.0 l/m 4.2 km/h (1 Bft) O-SO 11.6 C 15.4 C
23.06.2003 03:00 14.9 C 80 % 1011.1 hPa 0.0 l/m 3.4 km/h (1 Bft) O-SO 11.5 C 14.9 C
23.06.2003 04:00 14.3 C 83 % 1011.1 hPa 0.0 l/m 4.4 km/h (1 Bft) O-SO 11.5 C 14.3 C
23.06.2003 05:00 14.2 C 84 % 1011.3 hPa 0.0 l/m 2.6 km/h (1 Bft) O-SO 11.6 C 14.2 C
23.06.2003 06:00 14.4 C 85 % 1012.2 hPa 0.0 l/m 1.4 km/h (1 Bft) O 12.0 C 14.4 C
23.06.2003 07:00 17.0 C 77 % 1012.2 hPa 0.0 l/m 0.1 km/h (0 Bft) N 13.0 C 17.0 C
23.06.2003 08:00 20.6 C 64 % 1012.2 hPa 0.0 l/m 1.1 km/h (0 Bft) O-SO 13.5 C 20.6 C
23.06.2003 09:00 23.2 C 53 % 1011.7 hPa 0.0 l/m 3.3 km/h (1 Bft) SO 13.2 C 23.2 C
23.06.2003 10:00 25.1 C 49 % 1011.8 hPa 0.0 l/m 4.2 km/h (1 Bft) W-NW 13.6 C 25.1 C
23.06.2003 11:00 29.8 C 35 % 1011.1 hPa 0.0 l/m 4.6 km/h (1 Bft) W-NW 12.6 C 29.8 C
23.06.2003 12:00 33.6 C 25 % 1011.1 hPa 0.0 l/m 9.3 km/h (2 Bft) W 10.8 C 33.6 C
23.06.2003 13:00 34.8 C 25 % 1011.1 hPa 0.0 l/m 20.7 km/h (4 Bft) NW 11.8 C 34.8 C
23.06.2003 14:00 35.5 C 25 % 1011.1 hPa 0.0 l/m 26.1 km/h (4 Bft) W-NW 12.4 C 35.5 C
23.06.2003 15:00 35.5 C 25 % 1011.1 hPa 0.0 l/m 20.8 km/h (4 Bft) NW 12.4 C 35.5 C
23.06.2003 16:00 35.3 C 25 % 1011.1 hPa 0.0 l/m 25.4 km/h (4 Bft) NW 12.3 C 35.3 C
23.06.2003 17:00 34.4 C 25 % 1011.1 hPa 0.0 l/m 35.6 km/h (5 Bft) NW 11.7 C 34.4 C
23.06.2003 18:00 33.5 C 28 % 1011.2 hPa 0.0 l/m 28.6 km/h (4 Bft) NW 12.4 C 33.5 C
23.06.2003 19:00 32.5 C 31 % 1012.0 hPa 0.0 l/m 25.8 km/h (4 Bft) NW 13.2 C 32.5 C
23.06.2003 20:00 30.3 C 36 % 1012.7 hPa 0.0 l/m 21.0 km/h (4 Bft) W-NW 13.4 C 30.3 C
23.06.2003 21:00 28.3 C 39 % 1013.2 hPa 0.0 l/m 14.5 km/h (3 Bft) W-NW 13.0 C 28.3 C
23.06.2003 22:00 25.4 C 44 % 1013.7 hPa 0.0 l/m 5.4 km/h (1 Bft) O-SO 12.2 C 25.4 C
23.06.2003 23:00 23.3 C 50 % 1014.7 hPa 0.0 l/m 0.2 km/h (0 Bft) O 12.2 C 23.3 C
24.06.2003 00:00 21.3 C 59 % 1015.6 hPa 0.0 l/m 3.3 km/h (1 Bft) O-SO 12.9 C 21.3 C
24.06.2003 01:00 20.2 C 64 % 1016.3 hPa 0.0 l/m 4.9 km/h (1 Bft) O-SO 13.2 C 20.2 C
24.06.2003 02:00 19.7 C 68 % 1016.3 hPa 0.0 l/m 4.2 km/h (1 Bft) O-SO 13.6 C 19.7 C
24.06.2003 03:00 19.2 C 72 % 1016.3 hPa 0.0 l/m 2.1 km/h (1 Bft) O-SO 14.0 C 19.2 C
24.06.2003 04:00 18.3 C 78 % 1016.3 hPa 0.0 l/m 3.1 km/h (1 Bft) O-SO 14.4 C 18.3 C
24.06.2003 05:00 17.6 C 82 % 1017.3 hPa 0.0 l/m 1.7 km/h (1 Bft) O-SO 14.5 C 17.6 C
24.06.2003 06:00 17.5 C 84 % 1017.3 hPa 0.0 l/m 2.2 km/h (1 Bft) O-SO 14.8 C 17.5 C
24.06.2003 07:00 19.1 C 79 % 1017.6 hPa 0.0 l/m 0.9 km/h (0 Bft) O-SO 15.4 C 19.1 C
24.06.2003 08:00 21.9 C 65 % 1018.3 hPa 0.0 l/m 2.6 km/h (1 Bft) O-SO 15.1 C 21.9 C
24.06.2003 09:00 24.7 C 51 % 1018.3 hPa 0.0 l/m 9.2 km/h (2 Bft) W-NW 13.8 C 24.7 C
24.06.2003 10:00 26.2 C 44 % 1018.3 hPa 0.0 l/m 15.6 km/h (3 Bft) NW 13.1 C 26.2 C
24.06.2003 11:00 27.4 C 41 % 1018.4 hPa 0.0 l/m 17.0 km/h (3 Bft) W-NW 13.0 C 27.4 C
24.06.2003 12:00 28.4 C 38 % 1018.1 hPa 0.0 l/m 16.7 km/h (3 Bft) NW 12.7 C 28.4 C
24.06.2003 13:00 29.9 C 34 % 1017.3 hPa 0.0 l/m 19.1 km/h (3 Bft) NW 12.5 C 29.9 C
24.06.2003 14:00 31.2 C 32 % 1016.4 hPa 0.0 l/m 19.4 km/h (3 Bft) NW 12.3 C 31.2 C
24.06.2003 15:00 32.4 C 28 % 1016.3 hPa 0.0 l/m 11.6 km/h (2 Bft) NW 11.7 C 32.4 C
24.06.2003 16:00 32.7 C 28 % 1016.3 hPa 0.0 l/m 15.0 km/h (3 Bft) NW 11.6 C 32.7 C
24.06.2003 17:00 32.6 C 30 % 1016.3 hPa 0.0 l/m 16.8 km/h (3 Bft) NW 12.7 C 32.6 C
24.06.2003 18:00 32.1 C 33 % 1016.3 hPa 0.0 l/m 18.7 km/h (3 Bft) NW 13.7 C 32.1 C
24.06.2003 19:00 31.0 C 41 % 1016.3 hPa 0.0 l/m 17.7 km/h (3 Bft) W-NW 15.9 C 31.0 C
24.06.2003 20:00 29.2 C 47 % 1016.3 hPa 0.0 l/m 14.7 km/h (3 Bft) NW 16.7 C 29.2 C
24.06.2003 21:00 27.0 C 51 % 1017.0 hPa 0.0 l/m 4.8 km/h (1 Bft) NW 16.1 C 27.0 C
24.06.2003 22:00 23.9 C 59 % 1017.8 hPa 0.0 l/m 2.4 km/h (1 Bft) O 15.3 C 23.9 C
24.06.2003 23:00 23.5 C 66 % 1018.6 hPa 0.0 l/m 0.0 km/h (0 Bft) N 16.8 C 23.5 C
25.06.2003 00:00 22.8 C 70 % 1018.6 hPa 0.0 l/m 0.2 km/h (0 Bft) W 17.1 C 22.8 C
25.06.2003 01:00 21.4 C 78 % 1018.6 hPa 0.0 l/m 0.0 km/h (0 Bft) N 17.5 C 21.4 C
25.06.2003 02:00 20.7 C 78 % 1018.6 hPa 0.0 l/m 0.0 km/h (0 Bft) N 16.7 C 20.7 C
25.06.2003 03:00 20.0 C 81 % 1018.6 hPa 0.0 l/m 0.0 km/h (0 Bft) N 16.6 C 20.0 C
25.06.2003 04:00 19.2 C 84 % 1018.6 hPa 0.0 l/m 0.0 km/h (0 Bft) N 16.5 C 19.2 C
25.06.2003 05:00 19.3 C 84 % 1019.3 hPa 0.0 l/m 0.2 km/h (0 Bft) NO 16.5 C 19.3 C
25.06.2003 06:00 19.6 C 84 % 1019.7 hPa 0.0 l/m 0.0 km/h (0 Bft) N 16.8 C 19.6 C
25.06.2003 07:00 21.1 C 76 % 1019.7 hPa 0.0 l/m 0.3 km/h (0 Bft) O-SO 16.7 C 21.1 C
25.06.2003 08:00 22.1 C 73 % 1019.7 hPa 0.0 l/m 0.8 km/h (0 Bft) W-NW 17.0 C 22.1 C
25.06.2003 09:00 23.0 C 67 % 1019.6 hPa 0.0 l/m 0.6 km/h (0 Bft) NW 16.5 C 23.0 C
25.06.2003 10:00 24.9 C 59 % 1018.6 hPa 0.0 l/m 0.7 km/h (0 Bft) W-NW 16.3 C 24.9 C
25.06.2003 11:00 27.1 C 51 % 1017.9 hPa 0.0 l/m 1.6 km/h (1 Bft) W-NW 16.1 C 27.1 C
25.06.2003 12:00 29.1 C 40 % 1017.6 hPa 0.0 l/m 3.0 km/h (1 Bft) O-SO 14.2 C 29.1 C
25.06.2003 13:00 30.6 C 37 % 1017.3 hPa 0.0 l/m 2.5 km/h (1 Bft) NW 14.3 C 30.6 C
25.06.2003 14:00 32.6 C 32 % 1016.6 hPa 0.0 l/m 1.1 km/h (1 Bft) W-NW 13.6 C 32.6 C
25.06.2003 15:00 33.0 C 28 % 1016.6 hPa 0.0 l/m 12.8 km/h (3 Bft) NW 12.2 C 33.0 C
25.06.2003 16:00 33.5 C 27 % 1016.3 hPa 0.0 l/m 17.6 km/h (3 Bft) NW 12.0 C 33.5 C
25.06.2003 17:00 33.4 C 26 % 1015.5 hPa 0.0 l/m 19.6 km/h (3 Bft) NW 11.4 C 33.4 C
25.06.2003 18:00 32.6 C 32 % 1015.5 hPa 0.0 l/m 19.8 km/h (3 Bft) NW 13.8 C 32.6 C
25.06.2003 19:00 30.7 C 41 % 1015.5 hPa 0.0 l/m 20.6 km/h (4 Bft) NW 15.8 C 30.7 C
25.06.2003 20:00 28.8 C 49 % 1015.6 hPa 0.0 l/m 9.1 km/h (2 Bft) NW 17.1 C 28.8 C
25.06.2003 21:00 26.5 C 45 % 1016.6 hPa 0.0 l/m 8.6 km/h (2 Bft) O-NO 13.6 C 26.5 C
25.06.2003 22:00 24.7 C 47 % 1017.3 hPa 0.0 l/m 3.8 km/h (1 Bft) O-NO 12.5 C 24.7 C
25.06.2003 23:00 23.2 C 50 % 1017.8 hPa 0.0 l/m 0.6 km/h (0 Bft) NO 12.3 C 23.2 C
26.06.2003 00:00 21.8 C 53 % 1018.0 hPa 0.0 l/m 0.1 km/h (0 Bft) N 11.7 C 21.8 C
26.06.2003 01:00 19.4 C 63 % 1017.9 hPa 0.0 l/m 1.0 km/h (0 Bft) O 12.2 C 19.4 C
26.06.2003 02:00 18.5 C 68 % 1017.1 hPa 0.0 l/m 0.0 km/h (0 Bft) N 12.5 C 18.5 C
26.06.2003 03:00 17.8 C 71 % 1016.9 hPa 0.0 l/m 0.0 km/h (0 Bft) N 12.5 C 17.8 C
26.06.2003 04:00 17.1 C 74 % 1016.2 hPa 0.0 l/m 0.0 km/h (0 Bft) N 12.5 C 17.1 C
26.06.2003 05:00 16.7 C 77 % 1015.9 hPa 0.0 l/m 0.0 km/h (0 Bft) N 12.7 C 16.7 C
26.06.2003 06:00 17.7 C 69 % 1016.7 hPa 0.0 l/m 0.9 km/h (0 Bft) NW 11.9 C 17.7 C
26.06.2003 07:00 18.3 C 69 % 1016.9 hPa 0.0 l/m 1.5 km/h (1 Bft) SO 12.5 C 18.3 C
26.06.2003 08:00 19.7 C 64 % 1017.5 hPa 0.0 l/m 0.2 km/h (0 Bft) N 12.6 C 19.7 C
26.06.2003 09:00 21.2 C 59 % 1017.2 hPa 0.0 l/m 0.7 km/h (0 Bft) W-NW 12.9 C 21.2 C
26.06.2003 10:00 23.2 C 56 % 1016.4 hPa 0.0 l/m 3.5 km/h (1 Bft) O-SO 13.8 C 23.2 C
26.06.2003 11:00 25.5 C 48 % 1015.9 hPa 0.0 l/m 4.2 km/h (1 Bft) SO 13.8 C 25.5 C
26.06.2003 12:00 27.7 C 41 % 1015.7 hPa 0.0 l/m 2.2 km/h (1 Bft) W-NW 13.3 C 27.7 C
26.06.2003 13:00 29.7 C 34 % 1014.8 hPa 0.0 l/m 7.5 km/h (2 Bft) W-NW 12.2 C 29.7 C
26.06.2003 14:00 31.0 C 30 % 1014.3 hPa 0.0 l/m 12.6 km/h (3 Bft) NW 11.3 C 31.0 C
26.06.2003 15:00 31.3 C 28 % 1013.7 hPa 0.0 l/m 11.8 km/h (2 Bft) W-NW 10.8 C 31.3 C
26.06.2003 16:00 31.2 C 27 % 1012.8 hPa 0.0 l/m 16.2 km/h (3 Bft) W-NW 9.8 C 31.2 C
26.06.2003 17:00 31.6 C 27 % 1012.6 hPa 0.0 l/m 16.5 km/h (3 Bft) W-NW 10.1 C 31.6 C
26.06.2003 18:00 28.6 C 34 % 1012.7 hPa 0.0 l/m 18.1 km/h (3 Bft) NW 11.0 C 28.6 C
26.06.2003 19:00 23.5 C 47 % 1014.0 hPa 0.0 l/m 11.7 km/h (2 Bft) O-SO 11.4 C 23.5 C
26.06.2003 20:00 22.8 C 55 % 1014.8 hPa 0.0 l/m 17.4 km/h (3 Bft) O-SO 13.2 C 22.8 C
26.06.2003 21:00 21.4 C 57 % 1015.2 hPa 0.0 l/m 7.3 km/h (2 Bft) O-SO 12.5 C 21.4 C
26.06.2003 22:00 19.8 C 64 % 1015.9 hPa 0.0 l/m 0.3 km/h (0 Bft) O-SO 12.8 C 19.8 C
26.06.2003 23:00 18.0 C 75 % 1015.9 hPa 0.0 l/m 3.0 km/h (1 Bft) O-SO 13.5 C 18.0 C
27.06.2003 00:00 17.0 C 84 % 1015.6 hPa 0.0 l/m 6.7 km/h (2 Bft) O-SO 14.3 C 17.0 C
27.06.2003 01:00 16.3 C 88 % 1015.1 hPa 0.0 l/m 5.1 km/h (1 Bft) O-SO 14.2 C 16.3 C
27.06.2003 02:00 15.6 C 88 % 1014.8 hPa 0.0 l/m 0.0 km/h (0 Bft) N 13.7 C 15.6 C
27.06.2003 03:00 15.2 C 94 % 1014.8 hPa 0.0 l/m 1.4 km/h (1 Bft) O-SO 14.2 C 15.2 C
27.06.2003 04:00 14.9 C 95 % 1014.8 hPa 0.0 l/m 2.0 km/h (1 Bft) O-SO 14.1 C 14.9 C
27.06.2003 05:00 14.9 C 97 % 1014.8 hPa 0.0 l/m 2.6 km/h (1 Bft) O-SO 14.4 C 14.9 C
27.06.2003 06:00 15.4 C 93 % 1015.1 hPa 0.0 l/m 1.4 km/h (1 Bft) O-SO 14.3 C 15.4 C
27.06.2003 07:00 16.9 C 84 % 1015.9 hPa 0.0 l/m 1.2 km/h (1 Bft) O-SO 14.2 C 16.9 C
27.06.2003 08:00 18.7 C 77 % 1015.9 hPa 0.0 l/m 0.1 km/h (0 Bft) N 14.5 C 18.7 C
27.06.2003 09:00 21.4 C 67 % 1015.9 hPa 0.0 l/m 5.1 km/h (1 Bft) W-NW 14.9 C 21.4 C
27.06.2003 10:00 23.2 C 58 % 1015.4 hPa 0.0 l/m 11.8 km/h (2 Bft) W-NW 14.4 C 23.2 C
27.06.2003 11:00 24.8 C 51 % 1014.8 hPa 0.0 l/m 15.1 km/h (3 Bft) W-NW 13.9 C 24.8 C
27.06.2003 12:00 25.8 C 43 % 1014.8 hPa 0.0 l/m 22.1 km/h (4 Bft) NW 12.2 C 25.8 C
27.06.2003 13:00 27.4 C 37 % 1014.3 hPa 0.0 l/m 19.2 km/h (3 Bft) NW 11.2 C 27.4 C
27.06.2003 14:00 28.1 C 36 % 1013.8 hPa 0.0 l/m 15.6 km/h (3 Bft) W-NW 11.4 C 28.1 C
27.06.2003 15:00 27.8 C 36 % 1013.8 hPa 0.0 l/m 27.0 km/h (4 Bft) W-NW 11.2 C 27.8 C
27.06.2003 16:00 27.6 C 36 % 1013.8 hPa 0.0 l/m 23.1 km/h (4 Bft) NW 11.2 C 27.6 C
27.06.2003 17:00 27.5 C 32 % 1013.8 hPa 0.0 l/m 19.5 km/h (3 Bft) NW 9.1 C 27.5 C
27.06.2003 18:00 28.2 C 34 % 1013.8 hPa 0.0 l/m 14.2 km/h (3 Bft) NW 10.9 C 28.2 C
27.06.2003 19:00 27.3 C 42 % 1013.8 hPa 0.0 l/m 21.5 km/h (4 Bft) NW 13.2 C 27.3 C
27.06.2003 20:00 26.2 C 45 % 1014.3 hPa 0.0 l/m 12.4 km/h (3 Bft) NW 13.1 C 26.2 C
27.06.2003 21:00 24.5 C 50 % 1014.8 hPa 0.0 l/m 3.2 km/h (1 Bft) O-SO 13.3 C 24.5 C
27.06.2003 22:00 22.8 C 57 % 1015.5 hPa 0.0 l/m 3.7 km/h (1 Bft) O-SO 13.9 C 22.8 C
27.06.2003 23:00 22.0 C 61 % 1015.9 hPa 0.0 l/m 0.3 km/h (0 Bft) O-SO 14.0 C 22.0 C
28.06.2003 00:00 21.4 C 63 % 1015.9 hPa 0.0 l/m 0.8 km/h (0 Bft) NO 14.0 C 21.4 C
28.06.2003 01:00 20.7 C 64 % 1015.9 hPa 0.0 l/m 0.2 km/h (0 Bft) N 13.8 C 20.7 C
28.06.2003 02:00 19.9 C 70 % 1015.9 hPa 0.0 l/m 1.3 km/h (1 Bft) SO 14.2 C 19.9 C
28.06.2003 03:00 18.6 C 75 % 1015.9 hPa 0.0 l/m 0.0 km/h (0 Bft) N 14.2 C 18.6 C
28.06.2003 04:00 18.1 C 78 % 1015.9 hPa 0.0 l/m 0.0 km/h (0 Bft) N 14.2 C 18.1 C
28.06.2003 05:00 18.1 C 80 % 1015.9 hPa 0.0 l/m 0.0 km/h (0 Bft) N 14.5 C 18.1 C
28.06.2003 06:00 18.7 C 78 % 1015.9 hPa 0.0 l/m 0.0 km/h (0 Bft) N 14.7 C 18.7 C
28.06.2003 07:00 19.0 C 74 % 1015.9 hPa 0.0 l/m 0.4 km/h (0 Bft) W-NW 14.3 C 19.0 C
28.06.2003 08:00 19.6 C 70 % 1015.9 hPa 0.0 l/m 1.0 km/h (0 Bft) NW 14.1 C 19.6 C
28.06.2003 09:00 20.8 C 65 % 1015.9 hPa 0.0 l/m 1.8 km/h (1 Bft) W-NW 13.9 C 20.8 C
28.06.2003 10:00 21.9 C 60 % 1015.5 hPa 0.0 l/m 2.7 km/h (1 Bft) W-NW 13.7 C 21.9 C
28.06.2003 11:00 23.7 C 54 % 1014.8 hPa 0.0 l/m 5.0 km/h (1 Bft) W-NW 13.6 C 23.7 C
28.06.2003 12:00 25.4 C 45 % 1014.6 hPa 0.0 l/m 3.9 km/h (1 Bft) W-NW 12.5 C 25.4 C
28.06.2003 13:00 25.8 C 44 % 1013.8 hPa 0.0 l/m 9.4 km/h (2 Bft) NW 12.5 C 25.8 C
28.06.2003 14:00 27.3 C 39 % 1013.5 hPa 0.0 l/m 5.6 km/h (1 Bft) NW 12.2 C 27.3 C
28.06.2003 15:00 27.7 C 36 % 1012.8 hPa 0.0 l/m 6.0 km/h (2 Bft) W-NW 11.4 C 27.7 C
28.06.2003 16:00 27.4 C 37 % 1012.8 hPa 0.0 l/m 12.4 km/h (3 Bft) NW 11.2 C 27.4 C
28.06.2003 17:00 27.5 C 37 % 1012.0 hPa 0.0 l/m 11.4 km/h (2 Bft) NW 11.5 C 27.5 C
28.06.2003 18:00 27.3 C 36 % 1011.7 hPa 0.0 l/m 5.1 km/h (1 Bft) NW 10.8 C 27.3 C
28.06.2003 19:00 27.2 C 34 % 1011.7 hPa 0.0 l/m 10.0 km/h (2 Bft) NW 10.1 C 27.2 C
28.06.2003 20:00 26.3 C 36 % 1011.7 hPa 0.0 l/m 6.7 km/h (2 Bft) NW 10.1 C 26.3 C
28.06.2003 21:00 24.8 C 41 % 1011.7 hPa 0.0 l/m 9.6 km/h (2 Bft) NW 10.7 C 24.8 C
28.06.2003 22:00 23.1 C 49 % 1012.2 hPa 0.0 l/m 1.7 km/h (1 Bft) O 11.8 C 23.1 C
28.06.2003 23:00 20.4 C 60 % 1012.7 hPa 0.0 l/m 0.5 km/h (0 Bft) SO 12.4 C 20.4 C
29.06.2003 00:00 19.3 C 67 % 1012.8 hPa 0.0 l/m 0.7 km/h (0 Bft) O-SO 12.9 C 19.3 C
29.06.2003 01:00 18.9 C 72 % 1012.8 hPa 0.0 l/m 2.2 km/h (1 Bft) O 13.8 C 18.9 C
29.06.2003 02:00 17.1 C 78 % 1011.8 hPa 0.0 l/m 0.0 km/h (0 Bft) N 13.2 C 17.1 C
29.06.2003 03:00 15.8 C 84 % 1011.7 hPa 0.0 l/m 1.6 km/h (1 Bft) O 13.1 C 15.8 C
29.06.2003 04:00 15.2 C 91 % 1011.7 hPa 0.0 l/m 1.8 km/h (1 Bft) O-SO 13.8 C 15.2 C
29.06.2003 05:00 14.4 C 92 % 1011.7 hPa 0.0 l/m 1.4 km/h (1 Bft) O-SO 13.1 C 14.4 C
29.06.2003 06:00 14.6 C 94 % 1011.7 hPa 0.0 l/m 1.6 km/h (1 Bft) O-SO 13.6 C 14.6 C
29.06.2003 07:00 16.4 C 86 % 1011.7 hPa 0.0 l/m 0.0 km/h (0 Bft) N 14.0 C 16.4 C
29.06.2003 08:00 18.1 C 76 % 1011.7 hPa 0.0 l/m 0.1 km/h (0 Bft) N 13.8 C 18.1 C
29.06.2003 09:00 20.6 C 67 % 1011.7 hPa 0.0 l/m 1.1 km/h (0 Bft) O 14.1 C 20.6 C
29.06.2003 10:00 23.6 C 55 % 1011.2 hPa 0.0 l/m 4.3 km/h (1 Bft) O-SO 13.9 C 23.6 C
29.06.2003 11:00 25.9 C 46 % 1010.7 hPa 0.0 l/m 6.8 km/h (2 Bft) O-SO 13.3 C 25.9 C
29.06.2003 12:00 27.9 C 37 % 1010.5 hPa 0.0 l/m 5.5 km/h (1 Bft) O-SO 11.9 C 27.9 C
29.06.2003 13:00 28.6 C 35 % 1009.7 hPa 0.0 l/m 3.2 km/h (1 Bft) S 11.6 C 28.6 C
29.06.2003 14:00 30.1 C 32 % 1009.3 hPa 0.0 l/m 0.6 km/h (0 Bft) W-NW 11.5 C 30.1 C
29.06.2003 15:00 30.4 C 31 % 1008.6 hPa 0.0 l/m 2.7 km/h (1 Bft) NW 11.5 C 30.4 C
29.06.2003 16:00 31.7 C 29 % 1008.0 hPa 0.0 l/m 5.6 km/h (1 Bft) NW 11.5 C 31.7 C
29.06.2003 17:00 32.3 C 25 % 1007.3 hPa 0.0 l/m 8.0 km/h (2 Bft) W-NW 9.7 C 32.3 C
29.06.2003 18:00 32.2 C 26 % 1006.5 hPa 0.0 l/m 14.0 km/h (3 Bft) NW 10.0 C 32.2 C
29.06.2003 19:00 31.3 C 29 % 1006.5 hPa 0.0 l/m 8.7 km/h (2 Bft) W-NW 11.4 C 31.3 C
29.06.2003 20:00 29.1 C 36 % 1006.5 hPa 0.0 l/m 4.0 km/h (1 Bft) O-SO 12.3 C 29.1 C
29.06.2003 21:00 25.5 C 42 % 1007.4 hPa 0.0 l/m 5.6 km/h (1 Bft) O-SO 11.6 C 25.5 C
29.06.2003 22:00 22.6 C 55 % 1007.6 hPa 0.0 l/m 5.0 km/h (1 Bft) O-SO 13.1 C 22.6 C
29.06.2003 23:00 20.3 C 65 % 1008.6 hPa 0.0 l/m 2.8 km/h (1 Bft) O-SO 13.5 C 20.3 C
Min-Datum _ 23.06.03 23.06.03 29.06.03 - 23.06.03 - 27.06.03 23.06.03
_ Min-Zeit 04:39 11:57 17:45 - 01:03 - 17:51 04:39
Minimum _ 14.0 C 25 % 1006.5 hPa - 0.0 km/h (0 Bft) - 7.1 C 14.0 C
Max-Datum _ 23.06.03 27.06.03 25.06.03 23.06.03 23.06.03 - 25.06.03 23.06.03
_ Max-Zeit 14:45 05:21 05:03 00:00 17:33 - 01:27 14:45
Maximum _ 36.3 C 99 % 1019.7 hPa 0.0 l/m 54.2 km/h
NW (7 Bft)
- 17.9 C 36.3 C
Durchschnitt _ 24.0 C 55 % 1014.4 hPa #0.0 l/m 7.0 km/h (2 Bft) NW 13.2 C 24.0 C

Durchschnitt Minimum Temp.22.9 C
Durchschnitt Maximum Temp.25.0 C
© Kaiko 2003